sensor_id;sensor_type;location;lat;lon;timestamp;P1;durP1;ratioP1;P2;durP2;ratioP2
23228;SDS011;11783;50.350;6.576;2023-04-25T00:00:17;15.38;;;7.85;;
23228;SDS011;11783;50.350;6.576;2023-04-25T00:02:43;12.23;;;7.57;;
23228;SDS011;11783;50.350;6.576;2023-04-25T00:05:08;12.52;;;8.02;;
23228;SDS011;11783;50.350;6.576;2023-04-25T00:07:34;13.85;;;8.00;;
23228;SDS011;11783;50.350;6.576;2023-04-25T00:09:59;12.07;;;7.00;;
23228;SDS011;11783;50.350;6.576;2023-04-25T00:12:25;12.88;;;7.22;;
23228;SDS011;11783;50.350;6.576;2023-04-25T00:14:53;12.13;;;7.10;;
23228;SDS011;11783;50.350;6.576;2023-04-25T00:17:21;13.05;;;7.13;;
23228;SDS011;11783;50.350;6.576;2023-04-25T00:19:49;12.38;;;7.15;;
23228;SDS011;11783;50.350;6.576;2023-04-25T00:22:15;10.05;;;6.63;;
23228;SDS011;11783;50.350;6.576;2023-04-25T00:24:40;10.63;;;6.75;;
23228;SDS011;11783;50.350;6.576;2023-04-25T00:27:06;13.52;;;7.57;;
23228;SDS011;11783;50.350;6.576;2023-04-25T00:29:31;12.18;;;7.50;;
23228;SDS011;11783;50.350;6.576;2023-04-25T00:31:56;10.60;;;6.82;;
23228;SDS011;11783;50.350;6.576;2023-04-25T00:34:22;10.52;;;6.80;;
23228;SDS011;11783;50.350;6.576;2023-04-25T00:36:47;14.50;;;8.68;;
23228;SDS011;11783;50.350;6.576;2023-04-25T00:39:12;12.98;;;7.93;;
23228;SDS011;11783;50.350;6.576;2023-04-25T00:41:38;11.02;;;7.53;;
23228;SDS011;11783;50.350;6.576;2023-04-25T00:44:03;12.25;;;7.35;;
23228;SDS011;11783;50.350;6.576;2023-04-25T00:46:31;13.50;;;7.32;;
23228;SDS011;11783;50.350;6.576;2023-04-25T00:48:57;11.90;;;7.80;;
23228;SDS011;11783;50.350;6.576;2023-04-25T00:51:22;10.18;;;6.95;;
23228;SDS011;11783;50.350;6.576;2023-04-25T00:53:50;11.98;;;8.05;;
23228;SDS011;11783;50.350;6.576;2023-04-25T00:56:16;16.30;;;8.32;;
23228;SDS011;11783;50.350;6.576;2023-04-25T00:58:41;12.68;;;7.30;;
23228;SDS011;11783;50.350;6.576;2023-04-25T01:01:08;12.20;;;7.80;;
23228;SDS011;11783;50.350;6.576;2023-04-25T01:03:34;13.05;;;8.50;;
23228;SDS011;11783;50.350;6.576;2023-04-25T01:06:05;14.00;;;7.68;;
23228;SDS011;11783;50.350;6.576;2023-04-25T01:08:35;12.52;;;7.95;;
23228;SDS011;11783;50.350;6.576;2023-04-25T01:11:02;12.65;;;7.85;;
23228;SDS011;11783;50.350;6.576;2023-04-25T01:13:27;12.98;;;7.63;;
23228;SDS011;11783;50.350;6.576;2023-04-25T01:15:53;12.13;;;7.60;;
23228;SDS011;11783;50.350;6.576;2023-04-25T01:18:18;12.30;;;6.93;;
23228;SDS011;11783;50.350;6.576;2023-04-25T01:20:45;14.32;;;8.05;;
23228;SDS011;11783;50.350;6.576;2023-04-25T01:23:11;12.75;;;7.80;;
23228;SDS011;11783;50.350;6.576;2023-04-25T01:25:38;13.88;;;8.35;;
23228;SDS011;11783;50.350;6.576;2023-04-25T01:28:05;12.63;;;7.80;;
23228;SDS011;11783;50.350;6.576;2023-04-25T01:30:30;15.07;;;8.18;;
23228;SDS011;11783;50.350;6.576;2023-04-25T01:32:56;12.30;;;7.50;;
23228;SDS011;11783;50.350;6.576;2023-04-25T01:35:22;13.43;;;7.93;;
23228;SDS011;11783;50.350;6.576;2023-04-25T01:37:48;12.63;;;7.88;;
23228;SDS011;11783;50.350;6.576;2023-04-25T01:40:14;14.05;;;7.85;;
23228;SDS011;11783;50.350;6.576;2023-04-25T01:42:40;12.70;;;7.85;;
23228;SDS011;11783;50.350;6.576;2023-04-25T01:45:08;13.05;;;8.20;;
23228;SDS011;11783;50.350;6.576;2023-04-25T01:47:34;13.65;;;8.32;;
23228;SDS011;11783;50.350;6.576;2023-04-25T01:50:02;10.90;;;7.30;;
23228;SDS011;11783;50.350;6.576;2023-04-25T01:52:29;13.05;;;7.90;;
23228;SDS011;11783;50.350;6.576;2023-04-25T01:54:55;13.05;;;7.45;;
23228;SDS011;11783;50.350;6.576;2023-04-25T01:57:22;13.73;;;7.35;;
23228;SDS011;11783;50.350;6.576;2023-04-25T01:59:48;13.57;;;7.15;;
23228;SDS011;11783;50.350;6.576;2023-04-25T02:02:14;14.05;;;7.55;;
23228;SDS011;11783;50.350;6.576;2023-04-25T02:04:40;14.63;;;8.02;;
23228;SDS011;11783;50.350;6.576;2023-04-25T02:07:05;11.70;;;7.13;;
23228;SDS011;11783;50.350;6.576;2023-04-25T02:09:31;13.70;;;7.57;;
23228;SDS011;11783;50.350;6.576;2023-04-25T02:11:56;13.50;;;7.28;;
23228;SDS011;11783;50.350;6.576;2023-04-25T02:14:23;12.82;;;7.70;;
23228;SDS011;11783;50.350;6.576;2023-04-25T02:16:48;12.10;;;7.10;;
23228;SDS011;11783;50.350;6.576;2023-04-25T02:19:14;12.95;;;7.80;;
23228;SDS011;11783;50.350;6.576;2023-04-25T02:21:39;14.20;;;7.45;;
23228;SDS011;11783;50.350;6.576;2023-04-25T02:24:05;13.75;;;6.75;;
23228;SDS011;11783;50.350;6.576;2023-04-25T02:26:31;12.48;;;8.07;;
23228;SDS011;11783;50.350;6.576;2023-04-25T02:28:56;12.45;;;7.22;;
23228;SDS011;11783;50.350;6.576;2023-04-25T02:31:22;13.38;;;7.13;;
23228;SDS011;11783;50.350;6.576;2023-04-25T02:33:48;12.40;;;7.43;;
23228;SDS011;11783;50.350;6.576;2023-04-25T02:36:13;11.43;;;7.03;;
23228;SDS011;11783;50.350;6.576;2023-04-25T02:38:39;11.85;;;6.80;;
23228;SDS011;11783;50.350;6.576;2023-04-25T02:41:04;11.73;;;6.55;;
23228;SDS011;11783;50.350;6.576;2023-04-25T02:43:30;11.70;;;7.13;;
23228;SDS011;11783;50.350;6.576;2023-04-25T02:45:55;12.07;;;6.88;;
23228;SDS011;11783;50.350;6.576;2023-04-25T02:48:21;16.33;;;8.40;;
23228;SDS011;11783;50.350;6.576;2023-04-25T02:50:46;12.77;;;7.68;;
23228;SDS011;11783;50.350;6.576;2023-04-25T02:53:11;12.38;;;7.15;;
23228;SDS011;11783;50.350;6.576;2023-04-25T02:55:37;12.35;;;7.38;;
23228;SDS011;11783;50.350;6.576;2023-04-25T02:58:02;13.27;;;7.22;;
23228;SDS011;11783;50.350;6.576;2023-04-25T03:00:28;13.10;;;6.95;;
23228;SDS011;11783;50.350;6.576;2023-04-25T03:02:53;13.73;;;7.85;;
23228;SDS011;11783;50.350;6.576;2023-04-25T03:05:18;12.57;;;7.40;;
23228;SDS011;11783;50.350;6.576;2023-04-25T03:07:44;10.80;;;6.45;;
23228;SDS011;11783;50.350;6.576;2023-04-25T03:10:11;16.27;;;6.45;;
23228;SDS011;11783;50.350;6.576;2023-04-25T03:12:36;15.63;;;7.60;;
23228;SDS011;11783;50.350;6.576;2023-04-25T03:15:02;13.63;;;6.03;;
23228;SDS011;11783;50.350;6.576;2023-04-25T03:17:28;10.35;;;6.15;;
23228;SDS011;11783;50.350;6.576;2023-04-25T03:19:54;12.02;;;5.85;;
23228;SDS011;11783;50.350;6.576;2023-04-25T03:22:20;9.95;;;5.88;;
23228;SDS011;11783;50.350;6.576;2023-04-25T03:24:46;12.70;;;5.65;;
23228;SDS011;11783;50.350;6.576;2023-04-25T03:27:11;10.05;;;6.60;;
23228;SDS011;11783;50.350;6.576;2023-04-25T03:29:37;11.32;;;5.38;;
23228;SDS011;11783;50.350;6.576;2023-04-25T03:32:02;12.55;;;5.80;;
23228;SDS011;11783;50.350;6.576;2023-04-25T03:34:27;13.70;;;6.05;;
23228;SDS011;11783;50.350;6.576;2023-04-25T03:36:53;14.23;;;6.07;;
23228;SDS011;11783;50.350;6.576;2023-04-25T03:39:18;16.42;;;5.75;;
23228;SDS011;11783;50.350;6.576;2023-04-25T03:41:44;11.52;;;6.00;;
23228;SDS011;11783;50.350;6.576;2023-04-25T03:44:09;15.10;;;6.32;;
23228;SDS011;11783;50.350;6.576;2023-04-25T03:46:35;13.45;;;5.80;;
23228;SDS011;11783;50.350;6.576;2023-04-25T03:49:00;12.82;;;6.22;;
23228;SDS011;11783;50.350;6.576;2023-04-25T03:51:26;13.88;;;6.10;;
23228;SDS011;11783;50.350;6.576;2023-04-25T03:53:51;14.02;;;6.60;;
23228;SDS011;11783;50.350;6.576;2023-04-25T03:56:17;11.05;;;5.70;;
23228;SDS011;11783;50.350;6.576;2023-04-25T03:58:42;11.52;;;5.40;;
23228;SDS011;11783;50.350;6.576;2023-04-25T04:01:08;11.90;;;6.30;;
23228;SDS011;11783;50.350;6.576;2023-04-25T04:03:34;11.45;;;5.78;;
23228;SDS011;11783;50.350;6.576;2023-04-25T04:06:01;17.10;;;7.25;;
23228;SDS011;11783;50.350;6.576;2023-04-25T04:08:27;11.80;;;6.07;;
23228;SDS011;11783;50.350;6.576;2023-04-25T04:10:53;12.88;;;6.22;;
23228;SDS011;11783;50.350;6.576;2023-04-25T04:13:18;15.77;;;6.53;;
23228;SDS011;11783;50.350;6.576;2023-04-25T04:15:43;12.60;;;5.97;;
23228;SDS011;11783;50.350;6.576;2023-04-25T04:18:08;9.10;;;5.70;;
23228;SDS011;11783;50.350;6.576;2023-04-25T04:20:34;11.60;;;6.15;;
23228;SDS011;11783;50.350;6.576;2023-04-25T04:23:00;12.65;;;5.75;;
23228;SDS011;11783;50.350;6.576;2023-04-25T04:25:26;14.25;;;6.38;;
23228;SDS011;11783;50.350;6.576;2023-04-25T04:27:51;13.45;;;6.95;;
23228;SDS011;11783;50.350;6.576;2023-04-25T04:30:20;13.68;;;6.47;;
23228;SDS011;11783;50.350;6.576;2023-04-25T04:32:48;11.88;;;5.78;;
23228;SDS011;11783;50.350;6.576;2023-04-25T04:35:14;15.20;;;6.13;;
23228;SDS011;11783;50.350;6.576;2023-04-25T04:37:39;11.32;;;5.93;;
23228;SDS011;11783;50.350;6.576;2023-04-25T04:40:05;14.15;;;6.43;;
23228;SDS011;11783;50.350;6.576;2023-04-25T04:42:31;12.48;;;6.40;;
23228;SDS011;11783;50.350;6.576;2023-04-25T04:44:57;12.88;;;6.10;;
23228;SDS011;11783;50.350;6.576;2023-04-25T04:47:23;11.93;;;5.90;;
23228;SDS011;11783;50.350;6.576;2023-04-25T04:49:50;13.05;;;6.50;;
23228;SDS011;11783;50.350;6.576;2023-04-25T04:52:16;16.60;;;6.53;;
23228;SDS011;11783;50.350;6.576;2023-04-25T04:54:41;12.48;;;6.05;;
23228;SDS011;11783;50.350;6.576;2023-04-25T04:57:06;13.07;;;6.40;;
23228;SDS011;11783;50.350;6.576;2023-04-25T04:59:32;16.25;;;6.45;;
23228;SDS011;11783;50.350;6.576;2023-04-25T05:01:57;14.68;;;7.05;;
23228;SDS011;11783;50.350;6.576;2023-04-25T05:04:23;14.98;;;6.97;;
23228;SDS011;11783;50.350;6.576;2023-04-25T05:06:48;20.13;;;6.68;;
23228;SDS011;11783;50.350;6.576;2023-04-25T05:09:13;15.52;;;7.22;;
23228;SDS011;11783;50.350;6.576;2023-04-25T05:11:39;15.02;;;6.10;;
23228;SDS011;11783;50.350;6.576;2023-04-25T05:14:05;14.05;;;6.00;;
23228;SDS011;11783;50.350;6.576;2023-04-25T05:16:30;15.68;;;5.68;;
23228;SDS011;11783;50.350;6.576;2023-04-25T05:18:56;13.18;;;6.50;;
23228;SDS011;11783;50.350;6.576;2023-04-25T05:21:21;15.77;;;5.50;;
23228;SDS011;11783;50.350;6.576;2023-04-25T05:23:47;13.90;;;5.70;;
23228;SDS011;11783;50.350;6.576;2023-04-25T05:26:12;13.45;;;5.68;;
23228;SDS011;11783;50.350;6.576;2023-04-25T05:28:40;14.27;;;5.70;;
23228;SDS011;11783;50.350;6.576;2023-04-25T05:31:06;14.30;;;5.93;;
23228;SDS011;11783;50.350;6.576;2023-04-25T05:33:32;11.50;;;4.93;;
23228;SDS011;11783;50.350;6.576;2023-04-25T05:35:57;13.95;;;4.95;;
23228;SDS011;11783;50.350;6.576;2023-04-25T05:38:22;13.60;;;5.00;;
23228;SDS011;11783;50.350;6.576;2023-04-25T05:40:48;12.90;;;4.65;;
23228;SDS011;11783;50.350;6.576;2023-04-25T05:43:13;10.02;;;4.00;;
23228;SDS011;11783;50.350;6.576;2023-04-25T05:45:38;8.73;;;4.07;;
23228;SDS011;11783;50.350;6.576;2023-04-25T05:48:04;15.20;;;4.28;;
23228;SDS011;11783;50.350;6.576;2023-04-25T05:50:29;9.73;;;4.53;;
23228;SDS011;11783;50.350;6.576;2023-04-25T05:52:55;9.68;;;3.95;;
23228;SDS011;11783;50.350;6.576;2023-04-25T05:55:20;9.65;;;4.32;;
23228;SDS011;11783;50.350;6.576;2023-04-25T05:57:45;10.07;;;4.00;;
23228;SDS011;11783;50.350;6.576;2023-04-25T06:00:14;9.10;;;3.67;;
23228;SDS011;11783;50.350;6.576;2023-04-25T06:02:40;10.15;;;4.05;;
23228;SDS011;11783;50.350;6.576;2023-04-25T06:05:06;11.38;;;4.43;;
23228;SDS011;11783;50.350;6.576;2023-04-25T06:07:32;12.52;;;4.25;;
23228;SDS011;11783;50.350;6.576;2023-04-25T06:09:58;8.52;;;4.05;;
23228;SDS011;11783;50.350;6.576;2023-04-25T06:12:24;10.68;;;4.30;;
23228;SDS011;11783;50.350;6.576;2023-04-25T06:14:49;14.68;;;4.88;;
23228;SDS011;11783;50.350;6.576;2023-04-25T06:17:15;10.40;;;4.22;;
23228;SDS011;11783;50.350;6.576;2023-04-25T06:19:40;10.95;;;3.97;;
23228;SDS011;11783;50.350;6.576;2023-04-25T06:22:05;9.57;;;3.90;;
23228;SDS011;11783;50.350;6.576;2023-04-25T06:24:32;12.15;;;4.20;;
23228;SDS011;11783;50.350;6.576;2023-04-25T06:26:57;12.60;;;4.07;;
23228;SDS011;11783;50.350;6.576;2023-04-25T06:29:23;9.10;;;3.95;;
23228;SDS011;11783;50.350;6.576;2023-04-25T06:31:48;8.65;;;3.95;;
23228;SDS011;11783;50.350;6.576;2023-04-25T06:34:13;10.98;;;3.97;;
23228;SDS011;11783;50.350;6.576;2023-04-25T06:36:40;13.50;;;3.70;;
23228;SDS011;11783;50.350;6.576;2023-04-25T06:39:06;11.00;;;3.55;;
23228;SDS011;11783;50.350;6.576;2023-04-25T06:41:32;14.02;;;3.60;;
23228;SDS011;11783;50.350;6.576;2023-04-25T06:43:58;15.13;;;4.10;;
23228;SDS011;11783;50.350;6.576;2023-04-25T06:46:23;11.02;;;3.78;;
23228;SDS011;11783;50.350;6.576;2023-04-25T06:48:48;13.93;;;3.83;;
23228;SDS011;11783;50.350;6.576;2023-04-25T06:51:14;8.63;;;3.47;;
23228;SDS011;11783;50.350;6.576;2023-04-25T06:53:39;12.70;;;3.70;;
23228;SDS011;11783;50.350;6.576;2023-04-25T06:56:05;14.45;;;4.05;;
23228;SDS011;11783;50.350;6.576;2023-04-25T06:58:31;9.07;;;3.10;;
23228;SDS011;11783;50.350;6.576;2023-04-25T07:00:56;11.02;;;3.60;;
23228;SDS011;11783;50.350;6.576;2023-04-25T07:03:22;12.32;;;3.67;;
23228;SDS011;11783;50.350;6.576;2023-04-25T07:05:47;17.75;;;4.03;;
23228;SDS011;11783;50.350;6.576;2023-04-25T07:08:13;13.35;;;3.53;;
23228;SDS011;11783;50.350;6.576;2023-04-25T07:10:38;13.68;;;3.60;;
23228;SDS011;11783;50.350;6.576;2023-04-25T07:13:03;12.68;;;3.83;;
23228;SDS011;11783;50.350;6.576;2023-04-25T07:15:29;11.15;;;3.30;;
23228;SDS011;11783;50.350;6.576;2023-04-25T07:17:54;12.45;;;3.95;;
23228;SDS011;11783;50.350;6.576;2023-04-25T07:20:19;13.15;;;3.58;;
23228;SDS011;11783;50.350;6.576;2023-04-25T07:22:45;14.32;;;3.67;;
23228;SDS011;11783;50.350;6.576;2023-04-25T07:25:10;11.27;;;3.33;;
23228;SDS011;11783;50.350;6.576;2023-04-25T07:27:35;12.18;;;3.38;;
23228;SDS011;11783;50.350;6.576;2023-04-25T07:30:01;10.30;;;3.42;;
23228;SDS011;11783;50.350;6.576;2023-04-25T07:32:27;14.32;;;3.80;;
23228;SDS011;11783;50.350;6.576;2023-04-25T07:34:52;13.23;;;3.95;;
23228;SDS011;11783;50.350;6.576;2023-04-25T07:37:18;13.07;;;3.22;;
23228;SDS011;11783;50.350;6.576;2023-04-25T07:39:44;14.65;;;4.60;;
23228;SDS011;11783;50.350;6.576;2023-04-25T07:42:11;11.00;;;3.38;;
23228;SDS011;11783;50.350;6.576;2023-04-25T07:44:37;13.18;;;3.58;;
23228;SDS011;11783;50.350;6.576;2023-04-25T07:47:06;12.15;;;3.13;;
23228;SDS011;11783;50.350;6.576;2023-04-25T07:49:34;14.85;;;3.50;;
23228;SDS011;11783;50.350;6.576;2023-04-25T07:52:00;16.65;;;3.63;;
23228;SDS011;11783;50.350;6.576;2023-04-25T07:54:26;10.07;;;3.45;;
23228;SDS011;11783;50.350;6.576;2023-04-25T07:56:52;15.05;;;3.45;;
23228;SDS011;11783;50.350;6.576;2023-04-25T07:59:17;18.05;;;3.65;;
23228;SDS011;11783;50.350;6.576;2023-04-25T08:01:43;13.70;;;3.53;;
23228;SDS011;11783;50.350;6.576;2023-04-25T08:04:08;12.38;;;3.33;;
23228;SDS011;11783;50.350;6.576;2023-04-25T08:06:33;12.20;;;3.30;;
23228;SDS011;11783;50.350;6.576;2023-04-25T08:09:00;12.82;;;3.70;;
23228;SDS011;11783;50.350;6.576;2023-04-25T08:11:25;16.38;;;4.35;;
23228;SDS011;11783;50.350;6.576;2023-04-25T08:13:50;13.27;;;3.17;;
23228;SDS011;11783;50.350;6.576;2023-04-25T08:16:16;13.30;;;3.45;;
23228;SDS011;11783;50.350;6.576;2023-04-25T08:18:41;11.60;;;3.22;;
23228;SDS011;11783;50.350;6.576;2023-04-25T08:21:07;10.98;;;4.28;;
23228;SDS011;11783;50.350;6.576;2023-04-25T08:23:33;12.73;;;4.60;;
23228;SDS011;11783;50.350;6.576;2023-04-25T08:25:59;11.70;;;3.28;;
23228;SDS011;11783;50.350;6.576;2023-04-25T08:28:25;12.95;;;3.50;;
23228;SDS011;11783;50.350;6.576;2023-04-25T08:30:50;12.25;;;3.95;;
23228;SDS011;11783;50.350;6.576;2023-04-25T08:33:16;9.10;;;3.30;;
23228;SDS011;11783;50.350;6.576;2023-04-25T08:35:41;8.50;;;3.33;;
23228;SDS011;11783;50.350;6.576;2023-04-25T08:38:07;9.65;;;3.50;;
23228;SDS011;11783;50.350;6.576;2023-04-25T08:40:34;11.18;;;3.70;;
23228;SDS011;11783;50.350;6.576;2023-04-25T08:43:02;14.40;;;4.25;;
23228;SDS011;11783;50.350;6.576;2023-04-25T08:45:29;11.38;;;3.63;;
23228;SDS011;11783;50.350;6.576;2023-04-25T08:47:57;10.32;;;3.15;;
23228;SDS011;11783;50.350;6.576;2023-04-25T08:50:22;10.70;;;3.15;;
23228;SDS011;11783;50.350;6.576;2023-04-25T08:52:48;11.93;;;3.30;;
23228;SDS011;11783;50.350;6.576;2023-04-25T08:55:17;6.90;;;2.60;;
23228;SDS011;11783;50.350;6.576;2023-04-25T08:57:43;8.60;;;2.88;;
23228;SDS011;11783;50.350;6.576;2023-04-25T09:00:10;9.57;;;3.05;;
23228;SDS011;11783;50.350;6.576;2023-04-25T09:02:37;10.45;;;3.40;;
23228;SDS011;11783;50.350;6.576;2023-04-25T09:05:04;12.25;;;3.30;;
23228;SDS011;11783;50.350;6.576;2023-04-25T09:07:31;8.35;;;3.13;;
23228;SDS011;11783;50.350;6.576;2023-04-25T09:09:57;10.57;;;3.72;;
23228;SDS011;11783;50.350;6.576;2023-04-25T09:12:24;10.88;;;3.55;;
23228;SDS011;11783;50.350;6.576;2023-04-25T09:15:02;12.20;;;3.55;;
23228;SDS011;11783;50.350;6.576;2023-04-25T09:17:30;9.65;;;2.83;;
23228;SDS011;11783;50.350;6.576;2023-04-25T09:19:55;11.57;;;3.20;;
23228;SDS011;11783;50.350;6.576;2023-04-25T09:22:30;7.53;;;3.00;;
23228;SDS011;11783;50.350;6.576;2023-04-25T09:24:56;12.98;;;3.38;;
23228;SDS011;11783;50.350;6.576;2023-04-25T09:27:21;9.07;;;3.50;;
23228;SDS011;11783;50.350;6.576;2023-04-25T09:29:56;9.80;;;2.85;;
23228;SDS011;11783;50.350;6.576;2023-04-25T09:32:24;7.80;;;2.67;;
23228;SDS011;11783;50.350;6.576;2023-04-25T09:34:56;9.30;;;2.63;;
23228;SDS011;11783;50.350;6.576;2023-04-25T09:37:23;9.52;;;3.22;;
23228;SDS011;11783;50.350;6.576;2023-04-25T09:39:57;10.23;;;2.88;;
23228;SDS011;11783;50.350;6.576;2023-04-25T09:42:26;8.63;;;2.65;;
23228;SDS011;11783;50.350;6.576;2023-04-25T09:44:54;10.13;;;2.60;;
23228;SDS011;11783;50.350;6.576;2023-04-25T09:47:22;12.13;;;3.17;;
23228;SDS011;11783;50.350;6.576;2023-04-25T09:49:49;12.98;;;2.67;;
23228;SDS011;11783;50.350;6.576;2023-04-25T09:52:16;7.95;;;2.70;;
23228;SDS011;11783;50.350;6.576;2023-04-25T09:54:47;7.25;;;2.40;;
23228;SDS011;11783;50.350;6.576;2023-04-25T09:59:44;8.68;;;2.00;;
23228;SDS011;11783;50.350;6.576;2023-04-25T10:02:11;11.85;;;3.47;;
23228;SDS011;11783;50.350;6.576;2023-04-25T10:04:39;8.23;;;2.28;;
23228;SDS011;11783;50.350;6.576;2023-04-25T10:07:06;7.90;;;1.95;;
23228;SDS011;11783;50.350;6.576;2023-04-25T10:09:32;7.07;;;2.25;;
23228;SDS011;11783;50.350;6.576;2023-04-25T10:12:00;8.75;;;1.98;;
23228;SDS011;11783;50.350;6.576;2023-04-25T10:14:29;8.60;;;2.28;;
23228;SDS011;11783;50.350;6.576;2023-04-25T10:16:56;6.40;;;2.10;;
23228;SDS011;11783;50.350;6.576;2023-04-25T10:19:23;10.63;;;2.83;;
23228;SDS011;11783;50.350;6.576;2023-04-25T10:24:43;10.10;;;2.50;;
23228;SDS011;11783;50.350;6.576;2023-04-25T10:27:11;15.02;;;2.72;;
23228;SDS011;11783;50.350;6.576;2023-04-25T10:29:37;6.93;;;2.00;;
23228;SDS011;11783;50.350;6.576;2023-04-25T10:32:03;6.13;;;1.90;;
23228;SDS011;11783;50.350;6.576;2023-04-25T10:34:38;6.78;;;1.60;;
23228;SDS011;11783;50.350;6.576;2023-04-25T10:37:10;8.52;;;2.00;;
23228;SDS011;11783;50.350;6.576;2023-04-25T10:39:38;5.78;;;1.73;;
23228;SDS011;11783;50.350;6.576;2023-04-25T10:42:05;9.07;;;2.00;;
23228;SDS011;11783;50.350;6.576;2023-04-25T10:44:31;7.25;;;2.00;;
23228;SDS011;11783;50.350;6.576;2023-04-25T10:46:57;9.20;;;2.30;;
23228;SDS011;11783;50.350;6.576;2023-04-25T10:49:42;7.82;;;2.42;;
23228;SDS011;11783;50.350;6.576;2023-04-25T10:52:11;7.07;;;2.13;;
23228;SDS011;11783;50.350;6.576;2023-04-25T10:54:40;6.45;;;2.45;;
23228;SDS011;11783;50.350;6.576;2023-04-25T10:57:07;10.60;;;3.35;;
23228;SDS011;11783;50.350;6.576;2023-04-25T10:59:32;6.63;;;2.25;;
23228;SDS011;11783;50.350;6.576;2023-04-25T11:01:57;6.43;;;2.03;;
23228;SDS011;11783;50.350;6.576;2023-04-25T11:04:24;9.55;;;2.53;;
23228;SDS011;11783;50.350;6.576;2023-04-25T11:09:28;6.38;;;2.00;;
23228;SDS011;11783;50.350;6.576;2023-04-25T11:11:57;8.18;;;2.03;;
23228;SDS011;11783;50.350;6.576;2023-04-25T11:14:24;12.32;;;4.22;;
23228;SDS011;11783;50.350;6.576;2023-04-25T11:16:53;11.60;;;3.13;;
23228;SDS011;11783;50.350;6.576;2023-04-25T11:19:20;7.03;;;2.30;;
23228;SDS011;11783;50.350;6.576;2023-04-25T11:21:46;10.55;;;2.50;;
23228;SDS011;11783;50.350;6.576;2023-04-25T11:24:11;12.25;;;2.47;;
23228;SDS011;11783;50.350;6.576;2023-04-25T11:26:36;8.25;;;2.30;;
23228;SDS011;11783;50.350;6.576;2023-04-25T11:29:02;11.10;;;2.75;;
23228;SDS011;11783;50.350;6.576;2023-04-25T11:31:28;9.05;;;2.38;;
23228;SDS011;11783;50.350;6.576;2023-04-25T11:33:54;8.75;;;2.03;;
23228;SDS011;11783;50.350;6.576;2023-04-25T11:36:22;6.68;;;2.10;;
23228;SDS011;11783;50.350;6.576;2023-04-25T11:38:48;10.43;;;2.80;;
23228;SDS011;11783;50.350;6.576;2023-04-25T11:41:15;8.82;;;2.70;;
23228;SDS011;11783;50.350;6.576;2023-04-25T11:43:42;9.52;;;2.17;;
23228;SDS011;11783;50.350;6.576;2023-04-25T11:46:09;11.20;;;2.08;;
23228;SDS011;11783;50.350;6.576;2023-04-25T11:48:40;10.30;;;2.47;;
23228;SDS011;11783;50.350;6.576;2023-04-25T11:51:07;8.93;;;2.40;;
23228;SDS011;11783;50.350;6.576;2023-04-25T11:53:32;8.82;;;2.65;;
23228;SDS011;11783;50.350;6.576;2023-04-25T11:55:58;9.50;;;2.42;;
23228;SDS011;11783;50.350;6.576;2023-04-25T11:58:24;11.50;;;3.42;;
23228;SDS011;11783;50.350;6.576;2023-04-25T12:00:50;6.30;;;2.55;;
23228;SDS011;11783;50.350;6.576;2023-04-25T12:03:16;12.95;;;3.03;;
23228;SDS011;11783;50.350;6.576;2023-04-25T12:05:43;7.28;;;2.13;;
23228;SDS011;11783;50.350;6.576;2023-04-25T12:08:13;7.90;;;2.15;;
23228;SDS011;11783;50.350;6.576;2023-04-25T12:10:39;5.82;;;2.10;;
23228;SDS011;11783;50.350;6.576;2023-04-25T12:13:24;6.75;;;2.72;;
23228;SDS011;11783;50.350;6.576;2023-04-25T12:15:53;7.50;;;2.35;;
23228;SDS011;11783;50.350;6.576;2023-04-25T12:18:20;8.18;;;2.17;;
23228;SDS011;11783;50.350;6.576;2023-04-25T12:20:47;10.32;;;2.97;;
23228;SDS011;11783;50.350;6.576;2023-04-25T12:23:13;10.25;;;2.97;;
23228;SDS011;11783;50.350;6.576;2023-04-25T12:25:42;8.07;;;2.30;;
23228;SDS011;11783;50.350;6.576;2023-04-25T12:28:22;10.80;;;3.03;;
23228;SDS011;11783;50.350;6.576;2023-04-25T12:33:24;9.05;;;2.58;;
23228;SDS011;11783;50.350;6.576;2023-04-25T12:35:52;9.20;;;2.47;;
23228;SDS011;11783;50.350;6.576;2023-04-25T12:38:27;11.23;;;2.75;;
23228;SDS011;11783;50.350;6.576;2023-04-25T12:40:58;10.88;;;3.78;;
23228;SDS011;11783;50.350;6.576;2023-04-25T12:43:24;7.40;;;2.70;;
23228;SDS011;11783;50.350;6.576;2023-04-25T12:45:50;8.80;;;3.00;;
23228;SDS011;11783;50.350;6.576;2023-04-25T12:48:16;8.18;;;2.95;;
23228;SDS011;11783;50.350;6.576;2023-04-25T12:50:42;7.47;;;2.50;;
23228;SDS011;11783;50.350;6.576;2023-04-25T12:53:08;6.05;;;2.30;;
23228;SDS011;11783;50.350;6.576;2023-04-25T12:55:33;10.40;;;2.63;;
23228;SDS011;11783;50.350;6.576;2023-04-25T12:57:59;8.35;;;2.50;;
23228;SDS011;11783;50.350;6.576;2023-04-25T13:00:24;8.13;;;2.35;;
23228;SDS011;11783;50.350;6.576;2023-04-25T13:02:49;6.60;;;2.28;;
23228;SDS011;11783;50.350;6.576;2023-04-25T13:05:15;6.13;;;2.22;;
23228;SDS011;11783;50.350;6.576;2023-04-25T13:07:40;10.60;;;2.28;;
23228;SDS011;11783;50.350;6.576;2023-04-25T13:10:06;8.10;;;2.50;;
23228;SDS011;11783;50.350;6.576;2023-04-25T13:12:32;8.98;;;2.40;;
23228;SDS011;11783;50.350;6.576;2023-04-25T13:14:57;11.98;;;2.83;;
23228;SDS011;11783;50.350;6.576;2023-04-25T13:17:23;10.73;;;2.70;;
23228;SDS011;11783;50.350;6.576;2023-04-25T13:19:48;7.80;;;2.35;;
23228;SDS011;11783;50.350;6.576;2023-04-25T13:22:13;5.95;;;2.20;;
23228;SDS011;11783;50.350;6.576;2023-04-25T13:24:40;8.27;;;2.40;;
23228;SDS011;11783;50.350;6.576;2023-04-25T13:27:05;6.75;;;2.55;;
23228;SDS011;11783;50.350;6.576;2023-04-25T13:29:31;11.57;;;2.63;;
23228;SDS011;11783;50.350;6.576;2023-04-25T13:31:56;9.50;;;2.50;;
23228;SDS011;11783;50.350;6.576;2023-04-25T13:34:21;9.52;;;2.45;;
23228;SDS011;11783;50.350;6.576;2023-04-25T13:36:47;10.77;;;2.25;;
23228;SDS011;11783;50.350;6.576;2023-04-25T13:39:12;10.35;;;2.92;;
23228;SDS011;11783;50.350;6.576;2023-04-25T13:41:38;6.65;;;2.33;;
23228;SDS011;11783;50.350;6.576;2023-04-25T13:44:03;7.63;;;2.60;;
23228;SDS011;11783;50.350;6.576;2023-04-25T13:46:29;7.05;;;2.42;;
23228;SDS011;11783;50.350;6.576;2023-04-25T13:48:55;8.23;;;2.70;;
23228;SDS011;11783;50.350;6.576;2023-04-25T13:51:21;10.25;;;2.72;;
23228;SDS011;11783;50.350;6.576;2023-04-25T13:53:46;10.23;;;2.53;;
23228;SDS011;11783;50.350;6.576;2023-04-25T13:56:12;8.07;;;2.67;;
23228;SDS011;11783;50.350;6.576;2023-04-25T13:58:37;11.50;;;2.50;;
23228;SDS011;11783;50.350;6.576;2023-04-25T14:01:03;7.35;;;2.75;;
23228;SDS011;11783;50.350;6.576;2023-04-25T14:03:28;7.10;;;2.70;;
23228;SDS011;11783;50.350;6.576;2023-04-25T14:05:55;8.85;;;3.05;;
23228;SDS011;11783;50.350;6.576;2023-04-25T14:08:20;8.07;;;2.55;;
23228;SDS011;11783;50.350;6.576;2023-04-25T14:10:46;7.55;;;2.80;;
23228;SDS011;11783;50.350;6.576;2023-04-25T14:13:11;7.72;;;2.90;;
23228;SDS011;11783;50.350;6.576;2023-04-25T14:15:37;11.20;;;3.20;;
23228;SDS011;11783;50.350;6.576;2023-04-25T14:18:02;7.78;;;2.85;;
23228;SDS011;11783;50.350;6.576;2023-04-25T14:20:28;10.20;;;3.65;;
23228;SDS011;11783;50.350;6.576;2023-04-25T14:22:53;8.73;;;3.22;;
23228;SDS011;11783;50.350;6.576;2023-04-25T14:25:21;8.32;;;3.58;;
23228;SDS011;11783;50.350;6.576;2023-04-25T14:27:47;8.55;;;2.80;;
23228;SDS011;11783;50.350;6.576;2023-04-25T14:30:15;11.45;;;3.30;;
23228;SDS011;11783;50.350;6.576;2023-04-25T14:32:44;8.45;;;3.33;;
23228;SDS011;11783;50.350;6.576;2023-04-25T14:35:10;10.05;;;3.40;;
23228;SDS011;11783;50.350;6.576;2023-04-25T14:37:36;8.27;;;3.10;;
23228;SDS011;11783;50.350;6.576;2023-04-25T14:40:01;11.60;;;3.28;;
23228;SDS011;11783;50.350;6.576;2023-04-25T14:42:26;7.05;;;2.80;;